sensor_id;sensor_type;location;lat;lon;timestamp;P1;durP1;ratioP1;P2;durP2;ratioP2
36185;SDS011;22228;53.222;7.446;2022-08-19T00:00:58;5.40;;;5.00;;
36185;SDS011;22228;53.222;7.446;2022-08-19T00:03:20;5.60;;;5.20;;
36185;SDS011;22228;53.222;7.446;2022-08-19T00:05:40;5.30;;;5.00;;
36185;SDS011;22228;53.222;7.446;2022-08-19T00:08:01;5.63;;;5.17;;
36185;SDS011;22228;53.222;7.446;2022-08-19T00:10:22;5.43;;;5.03;;
36185;SDS011;22228;53.222;7.446;2022-08-19T00:12:43;7.03;;;6.03;;
36185;SDS011;22228;53.222;7.446;2022-08-19T00:15:04;6.40;;;5.90;;
36185;SDS011;22228;53.222;7.446;2022-08-19T00:17:26;12.23;;;6.97;;
36185;SDS011;22228;53.222;7.446;2022-08-19T00:19:48;7.10;;;6.50;;
36185;SDS011;22228;53.222;7.446;2022-08-19T00:22:08;6.30;;;5.87;;
36185;SDS011;22228;53.222;7.446;2022-08-19T00:24:28;6.40;;;5.87;;
36185;SDS011;22228;53.222;7.446;2022-08-19T00:26:49;6.30;;;5.80;;
36185;SDS011;22228;53.222;7.446;2022-08-19T00:29:11;7.43;;;6.83;;
36185;SDS011;22228;53.222;7.446;2022-08-19T00:31:33;7.07;;;6.53;;
36185;SDS011;22228;53.222;7.446;2022-08-19T00:33:54;6.97;;;6.47;;
36185;SDS011;22228;53.222;7.446;2022-08-19T00:36:16;5.83;;;5.40;;
36185;SDS011;22228;53.222;7.446;2022-08-19T00:38:38;6.57;;;5.97;;
36185;SDS011;22228;53.222;7.446;2022-08-19T00:41:01;7.93;;;6.00;;
36185;SDS011;22228;53.222;7.446;2022-08-19T00:43:23;6.23;;;5.67;;
36185;SDS011;22228;53.222;7.446;2022-08-19T00:45:44;7.70;;;7.03;;
36185;SDS011;22228;53.222;7.446;2022-08-19T00:48:05;7.80;;;7.00;;
36185;SDS011;22228;53.222;7.446;2022-08-19T00:50:26;8.13;;;7.20;;
36185;SDS011;22228;53.222;7.446;2022-08-19T00:52:48;7.90;;;7.27;;
36185;SDS011;22228;53.222;7.446;2022-08-19T00:55:10;9.73;;;8.03;;
36185;SDS011;22228;53.222;7.446;2022-08-19T00:57:34;9.90;;;8.60;;
36185;SDS011;22228;53.222;7.446;2022-08-19T00:59:58;8.93;;;8.13;;
36185;SDS011;22228;53.222;7.446;2022-08-19T01:02:21;10.27;;;9.27;;
36185;SDS011;22228;53.222;7.446;2022-08-19T01:04:42;10.70;;;8.60;;
36185;SDS011;22228;53.222;7.446;2022-08-19T01:07:02;9.20;;;7.37;;
36185;SDS011;22228;53.222;7.446;2022-08-19T01:09:24;8.63;;;7.83;;
36185;SDS011;22228;53.222;7.446;2022-08-19T01:11:45;8.37;;;7.67;;
36185;SDS011;22228;53.222;7.446;2022-08-19T01:14:06;8.10;;;7.37;;
36185;SDS011;22228;53.222;7.446;2022-08-19T01:16:27;7.50;;;6.90;;
36185;SDS011;22228;53.222;7.446;2022-08-19T01:18:49;8.07;;;7.27;;
36185;SDS011;22228;53.222;7.446;2022-08-19T01:21:11;7.83;;;7.03;;
36185;SDS011;22228;53.222;7.446;2022-08-19T01:23:36;8.30;;;7.60;;
36185;SDS011;22228;53.222;7.446;2022-08-19T01:26:03;8.43;;;7.70;;
36185;SDS011;22228;53.222;7.446;2022-08-19T01:28:25;8.83;;;8.03;;
36185;SDS011;22228;53.222;7.446;2022-08-19T01:30:47;9.20;;;8.30;;
36185;SDS011;22228;53.222;7.446;2022-08-19T01:33:08;8.07;;;7.43;;
36185;SDS011;22228;53.222;7.446;2022-08-19T01:35:29;8.70;;;7.90;;
36185;SDS011;22228;53.222;7.446;2022-08-19T01:37:51;8.43;;;7.03;;
36185;SDS011;22228;53.222;7.446;2022-08-19T01:40:15;7.67;;;7.07;;
36185;SDS011;22228;53.222;7.446;2022-08-19T01:42:35;6.50;;;5.93;;
36185;SDS011;22228;53.222;7.446;2022-08-19T01:44:56;6.57;;;6.07;;
36185;SDS011;22228;53.222;7.446;2022-08-19T01:47:16;5.40;;;5.00;;
36185;SDS011;22228;53.222;7.446;2022-08-19T01:49:37;4.97;;;4.53;;
36185;SDS011;22228;53.222;7.446;2022-08-19T01:51:58;4.77;;;4.37;;
36185;SDS011;22228;53.222;7.446;2022-08-19T01:54:20;6.63;;;6.03;;
36185;SDS011;22228;53.222;7.446;2022-08-19T01:56:43;5.77;;;5.27;;
36185;SDS011;22228;53.222;7.446;2022-08-19T01:59:05;5.30;;;4.80;;
36185;SDS011;22228;53.222;7.446;2022-08-19T02:01:28;4.97;;;4.47;;
36185;SDS011;22228;53.222;7.446;2022-08-19T02:03:50;4.70;;;4.30;;
36185;SDS011;22228;53.222;7.446;2022-08-19T02:06:12;4.97;;;4.50;;
36185;SDS011;22228;53.222;7.446;2022-08-19T02:08:35;5.70;;;5.03;;
36185;SDS011;22228;53.222;7.446;2022-08-19T02:10:57;5.17;;;4.67;;
36185;SDS011;22228;53.222;7.446;2022-08-19T02:13:19;6.20;;;4.90;;
36185;SDS011;22228;53.222;7.446;2022-08-19T02:15:40;8.60;;;4.90;;
36185;SDS011;22228;53.222;7.446;2022-08-19T02:18:01;6.83;;;5.43;;
36185;SDS011;22228;53.222;7.446;2022-08-19T02:20:21;4.90;;;4.40;;
36185;SDS011;22228;53.222;7.446;2022-08-19T02:22:42;5.50;;;5.00;;
36185;SDS011;22228;53.222;7.446;2022-08-19T02:25:04;6.27;;;5.20;;
36185;SDS011;22228;53.222;7.446;2022-08-19T02:27:25;5.47;;;4.97;;
36185;SDS011;22228;53.222;7.446;2022-08-19T02:29:47;15.70;;;6.40;;
36185;SDS011;22228;53.222;7.446;2022-08-19T02:32:08;16.77;;;6.60;;
36185;SDS011;22228;53.222;7.446;2022-08-19T02:34:29;8.47;;;5.50;;
36185;SDS011;22228;53.222;7.446;2022-08-19T02:36:49;9.70;;;6.30;;
36185;SDS011;22228;53.222;7.446;2022-08-19T02:39:10;7.53;;;6.70;;
36185;SDS011;22228;53.222;7.446;2022-08-19T02:41:31;9.20;;;6.73;;
36185;SDS011;22228;53.222;7.446;2022-08-19T02:43:53;8.07;;;6.73;;
36185;SDS011;22228;53.222;7.446;2022-08-19T02:46:15;16.10;;;9.83;;
36185;SDS011;22228;53.222;7.446;2022-08-19T02:48:39;10.10;;;8.40;;
36185;SDS011;22228;53.222;7.446;2022-08-19T02:50:59;12.40;;;9.27;;
36185;SDS011;22228;53.222;7.446;2022-08-19T02:53:20;11.40;;;8.40;;
36185;SDS011;22228;53.222;7.446;2022-08-19T02:55:44;24.43;;;9.10;;
36185;SDS011;22228;53.222;7.446;2022-08-19T02:58:06;17.63;;;8.30;;
36185;SDS011;22228;53.222;7.446;2022-08-19T03:00:26;7.87;;;7.07;;
36185;SDS011;22228;53.222;7.446;2022-08-19T03:02:48;6.77;;;6.17;;
36185;SDS011;22228;53.222;7.446;2022-08-19T03:05:09;8.83;;;7.57;;
36185;SDS011;22228;53.222;7.446;2022-08-19T03:07:30;8.67;;;7.80;;
36185;SDS011;22228;53.222;7.446;2022-08-19T03:09:50;9.13;;;8.00;;
36185;SDS011;22228;53.222;7.446;2022-08-19T03:12:11;8.00;;;7.20;;
36185;SDS011;22228;53.222;7.446;2022-08-19T03:14:32;9.33;;;8.10;;
36185;SDS011;22228;53.222;7.446;2022-08-19T03:16:53;8.17;;;7.07;;
36185;SDS011;22228;53.222;7.446;2022-08-19T03:19:15;16.70;;;8.53;;
36185;SDS011;22228;53.222;7.446;2022-08-19T03:21:36;15.27;;;10.20;;
36185;SDS011;22228;53.222;7.446;2022-08-19T03:23:58;10.87;;;8.70;;
36185;SDS011;22228;53.222;7.446;2022-08-19T03:26:20;9.13;;;8.23;;
36185;SDS011;22228;53.222;7.446;2022-08-19T03:28:40;19.43;;;8.97;;
36185;SDS011;22228;53.222;7.446;2022-08-19T03:31:02;7.67;;;6.93;;
36185;SDS011;22228;53.222;7.446;2022-08-19T03:33:25;8.57;;;7.33;;
36185;SDS011;22228;53.222;7.446;2022-08-19T03:35:47;6.77;;;6.13;;
36185;SDS011;22228;53.222;7.446;2022-08-19T03:38:19;7.07;;;6.37;;
36185;SDS011;22228;53.222;7.446;2022-08-19T03:40:40;9.37;;;8.23;;
36185;SDS011;22228;53.222;7.446;2022-08-19T03:43:01;9.23;;;7.60;;
36185;SDS011;22228;53.222;7.446;2022-08-19T03:45:22;11.17;;;9.70;;
36185;SDS011;22228;53.222;7.446;2022-08-19T03:47:43;11.10;;;8.30;;
36185;SDS011;22228;53.222;7.446;2022-08-19T03:50:04;11.93;;;9.20;;
36185;SDS011;22228;53.222;7.446;2022-08-19T03:52:26;15.50;;;11.73;;
36185;SDS011;22228;53.222;7.446;2022-08-19T03:54:46;41.60;;;15.00;;
36185;SDS011;22228;53.222;7.446;2022-08-19T03:57:06;33.43;;;15.20;;
36185;SDS011;22228;53.222;7.446;2022-08-19T03:59:29;30.83;;;15.60;;
36185;SDS011;22228;53.222;7.446;2022-08-19T04:01:51;18.50;;;11.93;;
36185;SDS011;22228;53.222;7.446;2022-08-19T04:04:12;42.50;;;11.10;;
36185;SDS011;22228;53.222;7.446;2022-08-19T04:06:33;13.73;;;10.87;;
36185;SDS011;22228;53.222;7.446;2022-08-19T04:08:56;24.83;;;11.60;;
36185;SDS011;22228;53.222;7.446;2022-08-19T04:11:19;23.67;;;11.10;;
36185;SDS011;22228;53.222;7.446;2022-08-19T04:13:41;28.60;;;10.03;;
36185;SDS011;22228;53.222;7.446;2022-08-19T04:16:02;19.20;;;10.00;;
36185;SDS011;22228;53.222;7.446;2022-08-19T04:18:23;16.83;;;9.57;;
36185;SDS011;22228;53.222;7.446;2022-08-19T04:20:46;13.97;;;9.53;;
36185;SDS011;22228;53.222;7.446;2022-08-19T04:23:08;11.10;;;9.97;;
36185;SDS011;22228;53.222;7.446;2022-08-19T04:25:33;11.10;;;9.90;;
36185;SDS011;22228;53.222;7.446;2022-08-19T04:27:55;10.13;;;9.23;;
36185;SDS011;22228;53.222;7.446;2022-08-19T04:30:15;10.57;;;9.57;;
36185;SDS011;22228;53.222;7.446;2022-08-19T04:32:36;12.27;;;10.30;;
36185;SDS011;22228;53.222;7.446;2022-08-19T04:34:56;12.07;;;9.23;;
36185;SDS011;22228;53.222;7.446;2022-08-19T04:37:18;11.07;;;9.97;;
36185;SDS011;22228;53.222;7.446;2022-08-19T04:39:38;12.30;;;9.50;;
36185;SDS011;22228;53.222;7.446;2022-08-19T04:42:18;14.63;;;9.87;;
36185;SDS011;22228;53.222;7.446;2022-08-19T04:44:56;19.20;;;9.23;;
36185;SDS011;22228;53.222;7.446;2022-08-19T04:47:17;12.23;;;8.47;;
36185;SDS011;22228;53.222;7.446;2022-08-19T04:49:37;12.93;;;8.07;;
36185;SDS011;22228;53.222;7.446;2022-08-19T04:51:58;16.77;;;8.20;;
36185;SDS011;22228;53.222;7.446;2022-08-19T04:54:18;9.20;;;7.90;;
36185;SDS011;22228;53.222;7.446;2022-08-19T04:56:40;8.37;;;7.63;;
36185;SDS011;22228;53.222;7.446;2022-08-19T04:59:02;8.33;;;7.67;;
36185;SDS011;22228;53.222;7.446;2022-08-19T05:01:24;8.53;;;7.87;;
36185;SDS011;22228;53.222;7.446;2022-08-19T05:03:46;10.53;;;8.70;;
36185;SDS011;22228;53.222;7.446;2022-08-19T05:06:08;9.83;;;9.03;;
36185;SDS011;22228;53.222;7.446;2022-08-19T05:08:31;11.13;;;10.00;;
36185;SDS011;22228;53.222;7.446;2022-08-19T05:10:52;9.87;;;8.97;;
36185;SDS011;22228;53.222;7.446;2022-08-19T05:13:13;10.90;;;9.90;;
36185;SDS011;22228;53.222;7.446;2022-08-19T05:15:34;12.33;;;11.07;;
36185;SDS011;22228;53.222;7.446;2022-08-19T05:17:55;11.03;;;10.00;;
36185;SDS011;22228;53.222;7.446;2022-08-19T05:20:33;10.33;;;9.43;;
36185;SDS011;22228;53.222;7.446;2022-08-19T05:23:11;11.50;;;10.50;;
36185;SDS011;22228;53.222;7.446;2022-08-19T05:25:38;10.97;;;9.87;;
36185;SDS011;22228;53.222;7.446;2022-08-19T05:27:59;11.60;;;10.47;;
36185;SDS011;22228;53.222;7.446;2022-08-19T05:30:20;10.60;;;9.57;;
36185;SDS011;22228;53.222;7.446;2022-08-19T05:32:42;11.50;;;10.37;;
36185;SDS011;22228;53.222;7.446;2022-08-19T05:35:03;11.87;;;10.77;;
36185;SDS011;22228;53.222;7.446;2022-08-19T05:37:23;12.23;;;10.73;;
36185;SDS011;22228;53.222;7.446;2022-08-19T05:39:45;11.60;;;10.40;;
36185;SDS011;22228;53.222;7.446;2022-08-19T05:42:06;11.03;;;9.93;;
36185;SDS011;22228;53.222;7.446;2022-08-19T05:44:30;9.63;;;8.63;;
36185;SDS011;22228;53.222;7.446;2022-08-19T05:46:52;10.27;;;9.17;;
36185;SDS011;22228;53.222;7.446;2022-08-19T05:49:14;11.17;;;9.63;;
36185;SDS011;22228;53.222;7.446;2022-08-19T05:51:35;11.77;;;10.27;;
36185;SDS011;22228;53.222;7.446;2022-08-19T05:53:56;13.93;;;12.37;;
36185;SDS011;22228;53.222;7.446;2022-08-19T05:56:17;16.40;;;12.43;;
36185;SDS011;22228;53.222;7.446;2022-08-19T05:58:39;15.43;;;11.47;;
36185;SDS011;22228;53.222;7.446;2022-08-19T06:01:01;12.67;;;11.37;;
36185;SDS011;22228;53.222;7.446;2022-08-19T06:03:24;11.07;;;10.03;;
36185;SDS011;22228;53.222;7.446;2022-08-19T06:05:45;10.53;;;9.50;;
36185;SDS011;22228;53.222;7.446;2022-08-19T06:08:06;12.37;;;11.17;;
36185;SDS011;22228;53.222;7.446;2022-08-19T06:10:26;12.20;;;10.90;;
36185;SDS011;22228;53.222;7.446;2022-08-19T06:12:47;11.97;;;10.77;;
36185;SDS011;22228;53.222;7.446;2022-08-19T06:15:09;11.63;;;10.43;;
36185;SDS011;22228;53.222;7.446;2022-08-19T06:17:31;10.67;;;9.50;;
36185;SDS011;22228;53.222;7.446;2022-08-19T06:19:53;10.07;;;9.20;;
36185;SDS011;22228;53.222;7.446;2022-08-19T06:22:15;9.93;;;8.93;;
36185;SDS011;22228;53.222;7.446;2022-08-19T06:24:35;10.30;;;9.40;;
36185;SDS011;22228;53.222;7.446;2022-08-19T06:26:57;10.67;;;9.67;;
36185;SDS011;22228;53.222;7.446;2022-08-19T06:29:20;11.27;;;10.17;;
36185;SDS011;22228;53.222;7.446;2022-08-19T06:31:42;11.73;;;10.63;;
36185;SDS011;22228;53.222;7.446;2022-08-19T06:34:04;11.93;;;10.73;;
36185;SDS011;22228;53.222;7.446;2022-08-19T06:36:26;11.73;;;10.60;;
36185;SDS011;22228;53.222;7.446;2022-08-19T06:38:51;12.90;;;11.60;;
36185;SDS011;22228;53.222;7.446;2022-08-19T06:41:11;12.13;;;10.93;;
36185;SDS011;22228;53.222;7.446;2022-08-19T06:43:32;12.17;;;11.07;;
36185;SDS011;22228;53.222;7.446;2022-08-19T06:45:52;12.60;;;11.30;;
36185;SDS011;22228;53.222;7.446;2022-08-19T06:48:13;14.97;;;13.37;;
36185;SDS011;22228;53.222;7.446;2022-08-19T06:50:33;16.57;;;13.30;;
36185;SDS011;22228;53.222;7.446;2022-08-19T06:52:53;15.80;;;14.00;;
36185;SDS011;22228;53.222;7.446;2022-08-19T06:55:15;16.23;;;12.77;;
36185;SDS011;22228;53.222;7.446;2022-08-19T06:57:36;16.23;;;13.60;;
36185;SDS011;22228;53.222;7.446;2022-08-19T06:59:56;15.00;;;13.40;;
36185;SDS011;22228;53.222;7.446;2022-08-19T07:02:18;17.00;;;14.83;;
36185;SDS011;22228;53.222;7.446;2022-08-19T07:04:39;16.13;;;14.43;;
36185;SDS011;22228;53.222;7.446;2022-08-19T07:07:02;15.13;;;13.63;;
36185;SDS011;22228;53.222;7.446;2022-08-19T07:09:27;18.20;;;15.47;;
36185;SDS011;22228;53.222;7.446;2022-08-19T07:11:49;18.07;;;16.17;;
36185;SDS011;22228;53.222;7.446;2022-08-19T07:14:12;18.20;;;16.30;;
36185;SDS011;22228;53.222;7.446;2022-08-19T07:16:34;17.80;;;15.83;;
36185;SDS011;22228;53.222;7.446;2022-08-19T07:18:54;18.37;;;15.00;;
36185;SDS011;22228;53.222;7.446;2022-08-19T07:21:16;15.50;;;13.90;;
36185;SDS011;22228;53.222;7.446;2022-08-19T07:23:38;13.93;;;12.43;;
36185;SDS011;22228;53.222;7.446;2022-08-19T07:26:03;14.13;;;12.80;;
36185;SDS011;22228;53.222;7.446;2022-08-19T07:28:27;13.47;;;12.07;;
36185;SDS011;22228;53.222;7.446;2022-08-19T07:30:47;12.70;;;11.40;;
36185;SDS011;22228;53.222;7.446;2022-08-19T07:33:08;11.37;;;10.37;;
36185;SDS011;22228;53.222;7.446;2022-08-19T07:35:29;11.20;;;10.10;;
36185;SDS011;22228;53.222;7.446;2022-08-19T07:37:51;12.23;;;10.80;;
36185;SDS011;22228;53.222;7.446;2022-08-19T07:40:11;12.00;;;10.77;;
36185;SDS011;22228;53.222;7.446;2022-08-19T07:42:33;11.63;;;10.57;;
36185;SDS011;22228;53.222;7.446;2022-08-19T07:44:55;11.10;;;10.20;;
36185;SDS011;22228;53.222;7.446;2022-08-19T07:47:15;10.00;;;9.20;;
36185;SDS011;22228;53.222;7.446;2022-08-19T07:49:36;10.97;;;10.07;;
36185;SDS011;22228;53.222;7.446;2022-08-19T07:51:58;11.00;;;10.07;;
36185;SDS011;22228;53.222;7.446;2022-08-19T07:54:21;11.23;;;10.23;;
36185;SDS011;22228;53.222;7.446;2022-08-19T07:56:43;10.17;;;9.37;;
36185;SDS011;22228;53.222;7.446;2022-08-19T07:59:03;12.40;;;11.10;;
36185;SDS011;22228;53.222;7.446;2022-08-19T08:01:26;11.97;;;10.23;;
36185;SDS011;22228;53.222;7.446;2022-08-19T08:03:47;11.33;;;10.33;;
36185;SDS011;22228;53.222;7.446;2022-08-19T08:06:25;11.67;;;10.57;;
36185;SDS011;22228;53.222;7.446;2022-08-19T08:09:03;11.60;;;10.70;;
36185;SDS011;22228;53.222;7.446;2022-08-19T08:11:40;12.03;;;10.83;;
36185;SDS011;22228;53.222;7.446;2022-08-19T08:14:08;11.70;;;10.50;;
36185;SDS011;22228;53.222;7.446;2022-08-19T08:16:30;12.10;;;10.93;;
36185;SDS011;22228;53.222;7.446;2022-08-19T08:18:54;11.80;;;10.73;;
36185;SDS011;22228;53.222;7.446;2022-08-19T08:21:14;10.77;;;9.87;;
36185;SDS011;22228;53.222;7.446;2022-08-19T08:23:34;11.87;;;10.73;;
36185;SDS011;22228;53.222;7.446;2022-08-19T08:25:56;12.43;;;10.43;;
36185;SDS011;22228;53.222;7.446;2022-08-19T08:28:18;11.87;;;10.37;;
36185;SDS011;22228;53.222;7.446;2022-08-19T08:30:38;11.87;;;10.70;;
36185;SDS011;22228;53.222;7.446;2022-08-19T08:33:02;10.40;;;9.53;;
36185;SDS011;22228;53.222;7.446;2022-08-19T08:35:23;10.67;;;9.77;;
36185;SDS011;22228;53.222;7.446;2022-08-19T08:37:44;11.07;;;10.00;;
36185;SDS011;22228;53.222;7.446;2022-08-19T08:40:07;9.40;;;8.60;;
36185;SDS011;22228;53.222;7.446;2022-08-19T08:42:37;9.70;;;8.90;;
36185;SDS011;22228;53.222;7.446;2022-08-19T08:45:10;10.07;;;9.27;;
36185;SDS011;22228;53.222;7.446;2022-08-19T08:47:34;9.33;;;8.43;;
36185;SDS011;22228;53.222;7.446;2022-08-19T08:49:59;9.17;;;8.47;;
36185;SDS011;22228;53.222;7.446;2022-08-19T08:52:25;8.80;;;8.00;;
36185;SDS011;22228;53.222;7.446;2022-08-19T08:54:48;8.97;;;8.27;;
36185;SDS011;22228;53.222;7.446;2022-08-19T08:57:12;8.83;;;8.10;;
36185;SDS011;22228;53.222;7.446;2022-08-19T08:59:38;7.73;;;7.20;;
36185;SDS011;22228;53.222;7.446;2022-08-19T09:02:00;8.03;;;7.43;;
36185;SDS011;22228;53.222;7.446;2022-08-19T09:04:21;9.63;;;8.83;;
36185;SDS011;22228;53.222;7.446;2022-08-19T09:06:48;8.27;;;7.63;;
36185;SDS011;22228;53.222;7.446;2022-08-19T09:09:16;8.10;;;7.40;;
36185;SDS011;22228;53.222;7.446;2022-08-19T09:11:43;8.50;;;7.80;;
36185;SDS011;22228;53.222;7.446;2022-08-19T09:14:12;10.13;;;9.20;;
36185;SDS011;22228;53.222;7.446;2022-08-19T09:16:38;6.20;;;5.50;;
36185;SDS011;22228;53.222;7.446;2022-08-19T09:19:00;6.67;;;6.07;;
36185;SDS011;22228;53.222;7.446;2022-08-19T09:21:22;7.87;;;7.17;;
36185;SDS011;22228;53.222;7.446;2022-08-19T09:23:45;7.13;;;6.63;;
36185;SDS011;22228;53.222;7.446;2022-08-19T09:26:07;9.57;;;8.67;;
36185;SDS011;22228;53.222;7.446;2022-08-19T09:28:28;8.33;;;7.63;;
36185;SDS011;22228;53.222;7.446;2022-08-19T09:30:50;8.70;;;7.90;;
36185;SDS011;22228;53.222;7.446;2022-08-19T09:33:11;9.17;;;8.37;;
36185;SDS011;22228;53.222;7.446;2022-08-19T09:35:32;8.17;;;7.40;;
36185;SDS011;22228;53.222;7.446;2022-08-19T09:37:54;8.90;;;8.10;;
36185;SDS011;22228;53.222;7.446;2022-08-19T09:40:17;8.77;;;8.07;;
36185;SDS011;22228;53.222;7.446;2022-08-19T09:42:38;9.50;;;8.80;;
36185;SDS011;22228;53.222;7.446;2022-08-19T09:45:01;7.10;;;6.50;;
36185;SDS011;22228;53.222;7.446;2022-08-19T09:47:22;8.93;;;8.20;;
36185;SDS011;22228;53.222;7.446;2022-08-19T09:49:43;7.83;;;7.33;;
36185;SDS011;22228;53.222;7.446;2022-08-19T09:52:03;8.80;;;8.03;;
36185;SDS011;22228;53.222;7.446;2022-08-19T09:54:24;8.13;;;7.60;;
36185;SDS011;22228;53.222;7.446;2022-08-19T09:56:46;7.90;;;7.30;;
36185;SDS011;22228;53.222;7.446;2022-08-19T09:59:07;6.03;;;5.53;;
36185;SDS011;22228;53.222;7.446;2022-08-19T10:01:28;5.70;;;5.20;;
36185;SDS011;22228;53.222;7.446;2022-08-19T10:03:51;8.00;;;7.37;;
36185;SDS011;22228;53.222;7.446;2022-08-19T10:06:13;13.23;;;12.07;;
36185;SDS011;22228;53.222;7.446;2022-08-19T10:08:33;7.77;;;6.93;;
36185;SDS011;22228;53.222;7.446;2022-08-19T10:10:55;5.83;;;5.43;;
36185;SDS011;22228;53.222;7.446;2022-08-19T10:13:18;5.13;;;4.57;;
36185;SDS011;22228;53.222;7.446;2022-08-19T10:15:42;5.83;;;5.23;;
36185;SDS011;22228;53.222;7.446;2022-08-19T10:18:03;5.47;;;4.70;;
36185;SDS011;22228;53.222;7.446;2022-08-19T10:20:23;4.93;;;4.53;;
36185;SDS011;22228;53.222;7.446;2022-08-19T10:22:43;3.87;;;3.57;;
36185;SDS011;22228;53.222;7.446;2022-08-19T10:25:05;4.47;;;4.17;;
36185;SDS011;22228;53.222;7.446;2022-08-19T10:27:26;3.10;;;2.90;;
36185;SDS011;22228;53.222;7.446;2022-08-19T10:29:48;4.13;;;3.77;;
36185;SDS011;22228;53.222;7.446;2022-08-19T10:32:09;4.93;;;3.93;;
36185;SDS011;22228;53.222;7.446;2022-08-19T10:34:29;4.00;;;3.67;;
36185;SDS011;22228;53.222;7.446;2022-08-19T10:36:50;3.87;;;2.97;;
36185;SDS011;22228;53.222;7.446;2022-08-19T10:39:11;5.63;;;3.50;;
36185;SDS011;22228;53.222;7.446;2022-08-19T10:41:32;4.77;;;3.17;;
36185;SDS011;22228;53.222;7.446;2022-08-19T10:43:55;2.43;;;2.20;;
36185;SDS011;22228;53.222;7.446;2022-08-19T10:46:18;3.30;;;2.30;;
36185;SDS011;22228;53.222;7.446;2022-08-19T10:48:38;2.60;;;2.37;;
36185;SDS011;22228;53.222;7.446;2022-08-19T10:50:59;2.83;;;1.97;;
36185;SDS011;22228;53.222;7.446;2022-08-19T10:53:38;2.90;;;2.67;;
36185;SDS011;22228;53.222;7.446;2022-08-19T10:55:58;3.33;;;3.03;;
36185;SDS011;22228;53.222;7.446;2022-08-19T10:58:36;2.20;;;2.10;;
36185;SDS011;22228;53.222;7.446;2022-08-19T11:00:57;2.33;;;2.13;;
36185;SDS011;22228;53.222;7.446;2022-08-19T11:03:19;3.07;;;2.40;;
36185;SDS011;22228;53.222;7.446;2022-08-19T11:05:40;2.33;;;2.13;;
36185;SDS011;22228;53.222;7.446;2022-08-19T11:08:00;3.60;;;2.27;;
36185;SDS011;22228;53.222;7.446;2022-08-19T11:10:21;2.57;;;2.17;;
36185;SDS011;22228;53.222;7.446;2022-08-19T11:12:42;2.33;;;2.13;;
36185;SDS011;22228;53.222;7.446;2022-08-19T11:15:04;2.00;;;1.80;;
36185;SDS011;22228;53.222;7.446;2022-08-19T11:17:25;3.00;;;2.80;;
36185;SDS011;22228;53.222;7.446;2022-08-19T11:19:47;4.00;;;2.17;;
36185;SDS011;22228;53.222;7.446;2022-08-19T11:22:08;3.27;;;3.07;;
36185;SDS011;22228;53.222;7.446;2022-08-19T11:24:29;1.73;;;1.60;;
36185;SDS011;22228;53.222;7.446;2022-08-19T11:26:51;2.20;;;1.87;;
36185;SDS011;22228;53.222;7.446;2022-08-19T11:29:18;1.80;;;1.70;;
36185;SDS011;22228;53.222;7.446;2022-08-19T11:31:41;2.97;;;1.70;;
36185;SDS011;22228;53.222;7.446;2022-08-19T11:34:04;1.50;;;1.37;;
36185;SDS011;22228;53.222;7.446;2022-08-19T11:36:28;2.40;;;2.20;;
36185;SDS011;22228;53.222;7.446;2022-08-19T11:38:51;3.17;;;2.87;;
36185;SDS011;22228;53.222;7.446;2022-08-19T11:41:11;1.70;;;1.60;;
36185;SDS011;22228;53.222;7.446;2022-08-19T11:43:32;2.20;;;1.80;;
36185;SDS011;22228;53.222;7.446;2022-08-19T11:45:53;3.70;;;1.70;;
36185;SDS011;22228;53.222;7.446;2022-08-19T11:48:14;3.00;;;2.10;;
36185;SDS011;22228;53.222;7.446;2022-08-19T11:50:34;1.73;;;1.63;;
36185;SDS011;22228;53.222;7.446;2022-08-19T11:52:56;1.87;;;1.70;;
36185;SDS011;22228;53.222;7.446;2022-08-19T11:55:17;1.97;;;1.87;;
36185;SDS011;22228;53.222;7.446;2022-08-19T11:57:38;1.93;;;1.83;;
36185;SDS011;22228;53.222;7.446;2022-08-19T11:59:59;2.80;;;2.00;;
36185;SDS011;22228;53.222;7.446;2022-08-19T12:02:23;2.30;;;2.17;;
36185;SDS011;22228;53.222;7.446;2022-08-19T12:04:44;2.90;;;2.63;;
36185;SDS011;22228;53.222;7.446;2022-08-19T12:07:05;2.77;;;2.07;;
36185;SDS011;22228;53.222;7.446;2022-08-19T12:09:26;3.20;;;3.00;;
36185;SDS011;22228;53.222;7.446;2022-08-19T12:11:47;2.60;;;2.20;;
36185;SDS011;22228;53.222;7.446;2022-08-19T12:14:10;3.10;;;2.90;;
36185;SDS011;22228;53.222;7.446;2022-08-19T12:16:32;2.17;;;2.00;;
36185;SDS011;22228;53.222;7.446;2022-08-19T12:18:54;2.50;;;2.30;;
36185;SDS011;22228;53.222;7.446;2022-08-19T12:21:15;1.80;;;1.70;;
36185;SDS011;22228;53.222;7.446;2022-08-19T12:23:37;2.50;;;1.80;;
36185;SDS011;22228;53.222;7.446;2022-08-19T12:25:59;2.57;;;2.37;;
36185;SDS011;22228;53.222;7.446;2022-08-19T12:28:20;2.30;;;2.10;;
36185;SDS011;22228;53.222;7.446;2022-08-19T12:30:41;2.93;;;2.70;;
36185;SDS011;22228;53.222;7.446;2022-08-19T12:33:01;2.23;;;2.13;;
36185;SDS011;22228;53.222;7.446;2022-08-19T12:35:22;2.77;;;2.57;;
36185;SDS011;22228;53.222;7.446;2022-08-19T12:37:43;2.40;;;2.20;;
36185;SDS011;22228;53.222;7.446;2022-08-19T12:40:04;1.53;;;1.43;;
36185;SDS011;22228;53.222;7.446;2022-08-19T12:42:27;3.67;;;2.67;;
36185;SDS011;22228;53.222;7.446;2022-08-19T12:44:48;3.90;;;2.20;;
36185;SDS011;22228;53.222;7.446;2022-08-19T12:47:10;2.60;;;2.20;;
36185;SDS011;22228;53.222;7.446;2022-08-19T12:49:32;2.90;;;2.70;;
36185;SDS011;22228;53.222;7.446;2022-08-19T12:51:55;2.17;;;2.00;;
36185;SDS011;22228;53.222;7.446;2022-08-19T12:54:16;2.27;;;2.07;;
36185;SDS011;22228;53.222;7.446;2022-08-19T12:56:37;2.50;;;2.40;;
36185;SDS011;22228;53.222;7.446;2022-08-19T12:59:00;2.17;;;2.03;;
36185;SDS011;22228;53.222;7.446;2022-08-19T13:01:20;2.77;;;2.53;;
36185;SDS011;22228;53.222;7.446;2022-08-19T13:03:41;3.00;;;2.10;;
36185;SDS011;22228;53.222;7.446;2022-08-19T13:06:01;2.73;;;2.60;;
36185;SDS011;22228;53.222;7.446;2022-08-19T13:08:22;3.53;;;3.23;;
36185;SDS011;22228;53.222;7.446;2022-08-19T13:10:42;3.00;;;2.80;;
36185;SDS011;22228;53.222;7.446;2022-08-19T13:13:04;3.50;;;3.30;;
36185;SDS011;22228;53.222;7.446;2022-08-19T13:15:27;2.00;;;1.90;;
36185;SDS011;22228;53.222;7.446;2022-08-19T13:17:50;2.13;;;1.93;;
36185;SDS011;22228;53.222;7.446;2022-08-19T13:20:15;2.63;;;2.50;;
36185;SDS011;22228;53.222;7.446;2022-08-19T13:22:38;2.97;;;2.80;;
36185;SDS011;22228;53.222;7.446;2022-08-19T13:24:58;2.90;;;2.63;;
36185;SDS011;22228;53.222;7.446;2022-08-19T13:27:19;2.17;;;2.07;;
36185;SDS011;22228;53.222;7.446;2022-08-19T13:29:39;3.13;;;2.93;;
36185;SDS011;22228;53.222;7.446;2022-08-19T13:32:19;3.77;;;2.60;;
36185;SDS011;22228;53.222;7.446;2022-08-19T13:34:58;2.00;;;1.80;;
36185;SDS011;22228;53.222;7.446;2022-08-19T13:37:18;3.03;;;2.83;;
36185;SDS011;22228;53.222;7.446;2022-08-19T13:39:59;1.90;;;1.80;;
36185;SDS011;22228;53.222;7.446;2022-08-19T13:42:20;3.03;;;2.77;;
36185;SDS011;22228;53.222;7.446;2022-08-19T13:44:40;2.40;;;2.30;;
36185;SDS011;22228;53.222;7.446;2022-08-19T13:47:01;3.23;;;3.03;;
36185;SDS011;22228;53.222;7.446;2022-08-19T13:49:28;2.33;;;2.17;;
36185;SDS011;22228;53.222;7.446;2022-08-19T13:51:49;2.87;;;2.67;;
36185;SDS011;22228;53.222;7.446;2022-08-19T13:54:10;3.03;;;2.73;;
36185;SDS011;22228;53.222;7.446;2022-08-19T13:56:31;2.70;;;2.50;;
36185;SDS011;22228;53.222;7.446;2022-08-19T13:58:51;2.47;;;2.27;;
36185;SDS011;22228;53.222;7.446;2022-08-19T14:01:12;4.17;;;3.83;;
36185;SDS011;22228;53.222;7.446;2022-08-19T14:03:39;3.63;;;2.63;;
36185;SDS011;22228;53.222;7.446;2022-08-19T14:06:01;2.70;;;2.50;;
36185;SDS011;22228;53.222;7.446;2022-08-19T14:08:22;2.40;;;1.93;;
36185;SDS011;22228;53.222;7.446;2022-08-19T14:10:42;2.40;;;2.20;;